createdAt,value
2018-03-02T00:02:26.876Z,29.52
2018-03-02T00:04:54.442Z,32.08
2018-03-02T00:07:22.059Z,28.33
2018-03-02T00:09:49.671Z,37.30
2018-03-02T00:12:17.266Z,30.20
2018-03-02T00:14:44.851Z,32.10
2018-03-02T00:17:12.414Z,31.42
2018-03-02T00:19:40.040Z,32.38
2018-03-02T00:22:07.603Z,34.00
2018-03-02T00:24:35.234Z,31.55
2018-03-02T00:27:02.804Z,37.67
2018-03-02T00:29:30.407Z,32.28
2018-03-02T00:31:58.004Z,28.87
2018-03-02T00:34:26.119Z,33.30
2018-03-02T00:36:53.755Z,32.55
2018-03-02T00:39:21.350Z,36.63
2018-03-02T00:41:48.951Z,32.33
2018-03-02T00:44:16.574Z,33.05
2018-03-02T00:46:44.198Z,32.63
2018-03-02T00:49:11.766Z,40.12
2018-03-02T00:51:39.352Z,33.35
2018-03-02T00:54:07.003Z,33.13
2018-03-02T00:56:34.614Z,34.28
2018-03-02T00:59:02.215Z,31.80
2018-03-02T01:01:29.774Z,33.35
2018-03-02T01:03:57.394Z,34.50
2018-03-02T01:06:24.965Z,36.08
2018-03-02T01:08:52.563Z,33.35
2018-03-02T01:11:20.159Z,32.30
2018-03-02T01:13:47.758Z,38.47
2018-03-02T01:16:15.306Z,35.65
2018-03-02T01:18:42.904Z,37.45
2018-03-02T01:21:10.495Z,30.73
2018-03-02T01:23:38.135Z,33.17
2018-03-02T01:26:05.761Z,31.25
2018-03-02T01:28:33.360Z,34.55
2018-03-02T01:31:00.998Z,34.85
2018-03-02T01:33:28.535Z,32.28
2018-03-02T01:35:56.136Z,29.33
2018-03-02T01:38:23.739Z,37.40
2018-03-02T01:40:51.335Z,33.65
2018-03-02T01:43:18.947Z,35.20
2018-03-02T01:45:46.547Z,33.05
2018-03-02T01:48:14.113Z,35.20
2018-03-02T01:50:41.719Z,37.80
2018-03-02T01:53:09.342Z,34.92
2018-03-02T01:55:36.939Z,37.70
2018-03-02T01:58:04.522Z,31.95
2018-03-02T02:00:32.070Z,33.13
2018-03-02T02:02:59.675Z,33.80
2018-03-02T02:05:27.234Z,35.95
2018-03-02T02:07:54.826Z,40.10
2018-03-02T02:10:22.458Z,35.88
2018-03-02T02:12:50.022Z,38.28
2018-03-02T02:15:18.013Z,36.15
2018-03-02T02:17:45.613Z,38.13
2018-03-02T02:20:13.202Z,41.63
2018-03-02T02:22:40.768Z,40.67
2018-03-02T02:25:08.383Z,43.75
2018-03-02T02:27:36.014Z,33.80
2018-03-02T02:30:03.615Z,40.08
2018-03-02T02:32:31.217Z,40.00
2018-03-02T02:34:58.815Z,35.22
2018-03-02T02:37:26.416Z,34.78
2018-03-02T02:39:54.003Z,36.55
2018-03-02T02:42:21.585Z,39.75
2018-03-02T02:44:49.195Z,43.00
2018-03-02T02:47:16.782Z,38.00
2018-03-02T02:49:44.410Z,32.67
2018-03-02T02:52:11.982Z,37.83
2018-03-02T02:54:39.966Z,40.85
2018-03-02T02:57:07.564Z,43.58
2018-03-02T02:59:35.135Z,40.17
2018-03-02T03:02:02.731Z,36.28
2018-03-02T03:04:30.315Z,36.13
2018-03-02T03:06:57.896Z,32.40
2018-03-02T03:09:25.505Z,40.85
2018-03-02T03:11:53.496Z,36.97
2018-03-02T03:14:21.121Z,36.72
2018-03-02T03:16:48.735Z,42.05
2018-03-02T03:19:16.375Z,37.20
2018-03-02T03:21:43.934Z,41.25
2018-03-02T03:24:11.501Z,36.47
2018-03-02T03:26:39.174Z,42.95
2018-03-02T03:29:06.728Z,40.85
2018-03-02T03:31:34.332Z,35.45
2018-03-02T03:34:02.327Z,41.35
2018-03-02T03:36:29.959Z,36.60
2018-03-02T03:38:57.569Z,48.45
2018-03-02T03:41:25.182Z,40.63
2018-03-02T03:43:53.162Z,41.15
2018-03-02T03:46:20.756Z,39.78
2018-03-02T03:48:48.408Z,37.72
2018-03-02T03:51:16.046Z,40.17
2018-03-02T03:53:43.628Z,39.90
2018-03-02T03:56:11.188Z,43.00
2018-03-02T03:58:38.796Z,39.75
2018-03-02T04:01:06.397Z,35.97
2018-03-02T04:03:34.005Z,41.10
2018-03-02T04:06:01.631Z,38.75
2018-03-02T04:08:29.235Z,39.15
2018-03-02T04:10:56.831Z,39.95
2018-03-02T04:13:24.436Z,42.40
2018-03-02T04:15:52.072Z,40.67
2018-03-02T04:18:19.712Z,37.30
2018-03-02T04:20:47.307Z,35.72
2018-03-02T04:23:14.915Z,42.78
2018-03-02T04:25:57.138Z,41.15
2018-03-02T04:28:24.703Z,39.03
2018-03-02T04:30:52.323Z,37.47
2018-03-02T04:33:19.967Z,35.80
2018-03-02T04:35:47.590Z,42.15
2018-03-02T04:38:15.235Z,46.25
2018-03-02T04:40:42.846Z,38.08
2018-03-02T04:43:10.446Z,42.67
2018-03-02T04:45:38.036Z,39.90
2018-03-02T04:48:05.656Z,33.90
2018-03-02T04:50:33.243Z,37.33
2018-03-02T04:53:00.888Z,42.00
2018-03-02T04:55:28.485Z,39.25
2018-03-02T04:57:56.076Z,38.63
2018-03-02T05:00:23.665Z,39.28
2018-03-02T05:02:51.270Z,44.03
2018-03-02T05:05:18.857Z,37.85
2018-03-02T05:07:46.456Z,36.55
2018-03-02T05:10:14.037Z,40.30
2018-03-02T05:12:41.678Z,47.08
2018-03-02T05:15:09.247Z,40.78
2018-03-02T05:17:36.827Z,42.20
2018-03-02T05:20:04.435Z,33.20
2018-03-02T05:22:32.056Z,47.35
2018-03-02T05:25:00.053Z,40.55
2018-03-02T05:27:27.632Z,48.47
2018-03-02T05:29:55.231Z,35.72
2018-03-02T05:32:22.819Z,38.67
2018-03-02T05:34:50.440Z,35.97
2018-03-02T05:37:18.027Z,33.33
2018-03-02T05:39:46.060Z,44.13
2018-03-02T05:42:13.617Z,37.95
2018-03-02T05:44:41.499Z,45.92
2018-03-02T05:47:09.098Z,39.85
2018-03-02T05:49:36.673Z,37.95
2018-03-02T05:52:04.274Z,37.97
2018-03-02T05:54:31.836Z,41.10
2018-03-02T05:56:59.448Z,39.50
2018-03-02T05:59:28.177Z,42.10
2018-03-02T06:01:55.803Z,42.30
2018-03-02T06:04:23.364Z,43.05
2018-03-02T06:06:50.972Z,40.17
2018-03-02T06:09:18.578Z,39.33
2018-03-02T06:11:47.091Z,41.13
2018-03-02T06:14:14.730Z,40.65
2018-03-02T06:16:42.364Z,41.92
2018-03-02T06:19:09.996Z,37.30
2018-03-02T06:21:37.996Z,41.80
2018-03-02T06:24:05.585Z,41.33
2018-03-02T06:26:33.212Z,42.60
2018-03-02T06:29:00.856Z,37.17
2018-03-02T06:31:28.445Z,40.25
2018-03-02T06:33:56.035Z,36.28
2018-03-02T06:36:23.627Z,36.70
2018-03-02T06:38:51.251Z,43.30
2018-03-02T06:41:18.826Z,34.95
2018-03-02T06:43:46.407Z,41.78
2018-03-02T06:46:16.129Z,41.90
2018-03-02T06:48:43.817Z,43.00
2018-03-02T06:51:12.204Z,41.60
2018-03-02T06:53:39.913Z,41.53
2018-03-02T06:56:07.526Z,41.85
2018-03-02T06:58:35.569Z,40.28
2018-03-02T07:01:03.160Z,45.30
2018-03-02T07:03:32.041Z,38.47
2018-03-02T07:06:00.030Z,38.85
2018-03-02T07:08:45.439Z,35.10
2018-03-02T07:11:13.036Z,45.08
2018-03-02T07:13:41.002Z,38.75
2018-03-02T07:16:08.671Z,37.67
2018-03-02T07:18:36.756Z,44.65
2018-03-02T07:21:04.399Z,40.97
2018-03-02T07:23:32.015Z,41.60
2018-03-02T07:25:59.641Z,38.80
2018-03-02T07:28:27.292Z,49.67
2018-03-02T07:30:54.875Z,37.67
2018-03-02T07:33:22.491Z,44.88
2018-03-02T07:35:50.068Z,39.35
2018-03-02T07:38:17.685Z,40.28
2018-03-02T07:40:45.332Z,39.35
2018-03-02T07:43:12.908Z,44.80
2018-03-02T07:45:40.551Z,39.30
2018-03-02T07:48:08.120Z,33.42
2018-03-02T07:50:35.739Z,42.88
2018-03-02T07:53:03.299Z,37.53
2018-03-02T07:55:30.905Z,41.50
2018-03-02T07:57:58.470Z,39.65
2018-03-02T08:00:26.069Z,39.42
2018-03-02T08:02:53.644Z,40.03
2018-03-02T08:05:21.256Z,41.33
2018-03-02T08:07:48.915Z,41.40
2018-03-02T08:10:16.523Z,44.10
2018-03-02T08:12:44.504Z,39.08
2018-03-02T08:15:12.173Z,36.55
2018-03-02T08:17:39.816Z,41.37
2018-03-02T08:20:07.435Z,44.33
2018-03-02T08:22:35.047Z,38.20
2018-03-02T08:25:02.711Z,40.33
2018-03-02T08:27:30.288Z,38.00
2018-03-02T08:29:57.903Z,41.60
2018-03-02T08:32:25.962Z,41.17
2018-03-02T08:34:53.583Z,39.72
2018-03-02T08:37:21.223Z,40.38
2018-03-02T08:39:49.523Z,37.78
2018-03-02T08:42:19.182Z,41.13
2018-03-02T08:44:47.497Z,38.95
2018-03-02T08:47:16.124Z,41.67
2018-03-02T08:49:44.093Z,39.85
2018-03-02T08:52:11.776Z,39.72
2018-03-02T08:54:40.203Z,44.17
2018-03-02T08:57:07.924Z,39.55
2018-03-02T08:59:36.469Z,40.53
2018-03-02T09:02:05.116Z,47.13
2018-03-02T09:04:32.760Z,37.65
2018-03-02T09:07:00.372Z,38.13
2018-03-02T09:09:27.954Z,41.47
2018-03-02T09:11:56.825Z,40.67
2018-03-02T09:14:24.419Z,40.45
2018-03-02T09:16:52.023Z,40.95
2018-03-02T09:19:19.597Z,36.22
2018-03-02T09:21:47.199Z,40.20
2018-03-02T09:24:14.795Z,39.88
2018-03-02T09:26:42.452Z,45.28
2018-03-02T09:29:10.036Z,37.65
2018-03-02T09:31:37.660Z,39.85
2018-03-02T09:34:05.222Z,42.30
2018-03-02T09:36:33.063Z,36.97
2018-03-02T09:39:00.660Z,39.38
2018-03-02T09:41:28.299Z,39.30
2018-03-02T09:43:55.937Z,43.08
2018-03-02T09:46:23.550Z,47.13
2018-03-02T09:48:51.142Z,38.28
2018-03-02T09:51:18.761Z,39.17
2018-03-02T09:53:46.401Z,38.55
2018-03-02T09:56:14.000Z,38.53
2018-03-02T09:58:42.025Z,44.75
2018-03-02T10:01:09.599Z,40.72
2018-03-02T10:03:37.233Z,41.20
2018-03-02T10:06:04.833Z,43.83
2018-03-02T10:08:32.469Z,42.55
2018-03-02T10:11:00.235Z,40.10
2018-03-02T10:13:27.877Z,38.58
2018-03-02T10:15:55.443Z,39.63
2018-03-02T10:18:23.051Z,46.58
2018-03-02T10:20:50.628Z,41.15
2018-03-02T10:23:18.305Z,38.50
2018-03-02T10:25:45.880Z,39.67
2018-03-02T10:28:13.484Z,40.85
2018-03-02T10:30:41.088Z,41.53
2018-03-02T10:33:08.679Z,43.42
2018-03-02T10:35:36.270Z,40.92
2018-03-02T10:38:03.892Z,42.15
2018-03-02T10:40:31.516Z,40.22
2018-03-02T10:42:59.105Z,36.85
2018-03-02T10:45:26.763Z,46.30
2018-03-02T10:47:54.371Z,44.65
2018-03-02T10:50:22.020Z,40.67
2018-03-02T10:52:49.612Z,40.50
2018-03-02T10:55:17.172Z,52.97
2018-03-02T10:57:44.768Z,40.90
2018-03-02T11:00:12.339Z,37.70
2018-03-02T11:02:45.633Z,32.97
2018-03-02T11:05:13.236Z,42.37
2018-03-02T11:07:40.884Z,43.70
2018-03-02T11:10:08.455Z,40.07
2018-03-02T11:12:36.058Z,43.50
2018-03-02T11:15:03.651Z,36.67
2018-03-02T11:17:31.271Z,38.83
2018-03-02T11:19:59.164Z,37.70
2018-03-02T11:22:26.780Z,40.67
2018-03-02T11:24:54.353Z,37.27
2018-03-02T11:27:21.936Z,39.57
2018-03-02T11:29:49.527Z,37.57
2018-03-02T11:32:17.084Z,41.17
2018-03-02T11:34:46.815Z,35.70
2018-03-02T11:37:14.407Z,36.53
2018-03-02T11:39:42.031Z,35.03
2018-03-02T11:42:13.915Z,38.93
2018-03-02T11:44:41.540Z,39.43
2018-03-02T11:47:09.139Z,43.90
2018-03-02T11:49:36.767Z,43.40
2018-03-02T11:52:17.620Z,44.67
2018-03-02T11:54:45.244Z,41.67
2018-03-02T11:57:12.854Z,45.83
2018-03-02T11:59:40.456Z,38.80
2018-03-02T12:02:08.033Z,41.07
2018-03-02T12:04:35.656Z,38.87
2018-03-02T12:07:03.251Z,39.10
2018-03-02T12:09:34.978Z,40.27
2018-03-02T12:12:02.579Z,42.47
2018-03-02T12:14:30.171Z,41.00
2018-03-02T12:16:57.764Z,40.10
2018-03-02T12:19:25.767Z,41.67
2018-03-02T12:21:53.356Z,44.47
2018-03-02T12:24:20.958Z,39.83
2018-03-02T12:26:48.926Z,39.67
2018-03-02T12:29:16.506Z,40.57
2018-03-02T12:31:44.114Z,42.80
2018-03-02T12:34:11.700Z,48.13
2018-03-02T12:36:39.342Z,38.77
2018-03-02T12:39:06.936Z,39.53
2018-03-02T12:41:34.546Z,43.60
2018-03-02T12:44:02.187Z,39.60
2018-03-02T12:46:29.784Z,41.20
2018-03-02T12:48:57.404Z,43.70
2018-03-02T12:51:25.060Z,42.40
2018-03-02T12:53:52.634Z,42.60
2018-03-02T12:56:20.224Z,45.03
2018-03-02T12:58:47.886Z,43.10
2018-03-02T13:01:15.513Z,41.37
2018-03-02T13:03:43.531Z,43.43
2018-03-02T13:06:11.129Z,44.73
2018-03-02T13:08:38.715Z,53.83
2018-03-02T13:11:06.719Z,45.30
2018-03-02T13:13:34.332Z,38.60
2018-03-02T13:16:02.208Z,41.70
2018-03-02T13:18:41.472Z,43.40
2018-03-02T13:21:09.086Z,43.20
2018-03-02T13:23:36.752Z,41.07
2018-03-02T13:26:04.379Z,41.70
2018-03-02T13:28:50.653Z,38.73
2018-03-02T13:31:18.244Z,41.27
2018-03-02T13:33:57.612Z,38.83
2018-03-02T13:36:25.220Z,42.53
2018-03-02T13:38:52.819Z,40.97
2018-03-02T13:41:32.195Z,41.37
2018-03-02T13:43:59.840Z,38.80
2018-03-02T13:46:27.484Z,46.03
2018-03-02T13:49:06.971Z,43.37
2018-03-02T13:51:34.583Z,37.83
2018-03-02T13:54:02.225Z,41.07
2018-03-02T13:56:41.444Z,38.00
2018-03-02T13:59:09.043Z,40.53
2018-03-02T14:01:36.692Z,41.23
2018-03-02T14:04:21.562Z,41.80
2018-03-02T14:06:49.211Z,40.70
2018-03-02T14:09:16.848Z,41.43
2018-03-02T14:11:44.501Z,40.87
2018-03-02T14:14:12.093Z,37.63
2018-03-02T14:16:40.574Z,41.03
2018-03-02T14:19:08.172Z,39.17
2018-03-02T14:21:35.811Z,35.23
2018-03-02T14:24:03.476Z,39.17
2018-03-02T14:26:31.115Z,44.00
2018-03-02T14:28:58.752Z,40.47
2018-03-02T14:31:26.396Z,42.73
2018-03-02T14:33:54.004Z,41.80
2018-03-02T14:36:21.628Z,39.47
2018-03-02T14:38:49.219Z,38.70
2018-03-02T14:41:16.793Z,41.97
2018-03-02T14:43:44.837Z,43.37
2018-03-02T14:46:12.399Z,42.07
2018-03-02T14:48:41.208Z,40.30
2018-03-02T14:51:09.020Z,40.13
2018-03-02T14:53:37.008Z,46.87
2018-03-02T14:56:04.668Z,51.00
2018-03-02T14:58:32.397Z,40.87
2018-03-02T15:01:00.820Z,42.83
2018-03-02T15:03:28.532Z,45.97
2018-03-02T15:05:56.109Z,42.63
2018-03-02T15:08:23.741Z,44.60
2018-03-02T15:10:51.492Z,44.83
2018-03-02T15:13:20.268Z,41.97
2018-03-02T15:15:48.032Z,43.93
2018-03-02T15:18:15.628Z,51.33
2018-03-02T15:20:43.389Z,44.57
2018-03-02T15:23:11.027Z,45.67
2018-03-02T15:25:38.863Z,45.90
2018-03-02T15:28:06.531Z,52.53
2018-03-02T15:30:34.098Z,39.63
2018-03-02T15:33:01.711Z,37.97
2018-03-02T15:35:29.288Z,41.63
2018-03-02T15:37:56.914Z,40.87
2018-03-02T15:40:24.563Z,44.43
2018-03-02T15:42:52.160Z,40.17
2018-03-02T15:45:19.762Z,40.60
2018-03-02T15:47:47.760Z,41.27
2018-03-02T15:50:15.416Z,49.77
2018-03-02T15:52:43.043Z,43.90
2018-03-02T15:55:11.045Z,43.83
2018-03-02T15:57:38.607Z,46.00
2018-03-02T16:00:06.198Z,42.00
2018-03-02T16:02:33.772Z,45.20
2018-03-02T16:05:01.404Z,45.07
2018-03-02T16:07:28.979Z,42.67
2018-03-02T16:09:56.604Z,53.93
2018-03-02T16:12:24.850Z,61.93
2018-03-02T16:14:52.863Z,59.43
2018-03-02T16:17:20.448Z,56.00
2018-03-02T16:19:48.093Z,46.77
2018-03-02T16:22:15.708Z,46.87
2018-03-02T16:24:43.314Z,39.13
2018-03-02T16:27:10.883Z,46.73
2018-03-02T16:29:38.488Z,46.57
2018-03-02T16:32:06.048Z,37.00
2018-03-02T16:34:33.672Z,49.40
2018-03-02T16:37:02.202Z,47.80
2018-03-02T16:39:29.813Z,41.33
2018-03-02T16:41:57.596Z,41.77
2018-03-02T16:44:25.699Z,40.53
2018-03-02T16:46:56.784Z,36.53
2018-03-02T16:49:26.607Z,43.97
2018-03-02T16:51:54.787Z,42.50
2018-03-02T16:54:23.561Z,46.33
2018-03-02T16:56:51.457Z,47.30
2018-03-02T16:59:20.524Z,56.17
2018-03-02T17:01:48.710Z,58.87
2018-03-02T17:04:16.788Z,51.30
2018-03-02T17:06:44.409Z,57.92
2018-03-02T17:09:13.000Z,48.05
2018-03-02T17:11:41.514Z,48.03
2018-03-02T17:14:09.607Z,50.17
2018-03-02T17:16:38.996Z,44.95
2018-03-02T17:19:08.004Z,46.97
2018-03-02T17:21:36.138Z,48.17
2018-03-02T17:24:03.743Z,49.63
2018-03-02T17:26:32.477Z,43.87
2018-03-02T17:29:00.391Z,51.10
2018-03-02T17:31:28.417Z,47.62
2018-03-02T17:33:56.533Z,51.97
2018-03-02T17:36:25.224Z,57.00
2018-03-02T17:38:52.900Z,58.80
2018-03-02T17:41:21.001Z,53.40
2018-03-02T17:43:50.356Z,55.83
2018-03-02T17:46:18.101Z,58.90
2018-03-02T17:48:46.324Z,56.13
2018-03-02T17:51:14.026Z,53.45
2018-03-02T17:53:42.791Z,68.10
2018-03-02T17:56:10.557Z,54.65
2018-03-02T17:58:38.233Z,54.10
2018-03-02T18:01:07.493Z,52.08
2018-03-02T18:03:36.038Z,52.47
2018-03-02T18:06:03.838Z,57.55
2018-03-02T18:08:31.567Z,55.55
2018-03-02T18:10:59.180Z,53.45
2018-03-02T18:13:26.776Z,57.53
2018-03-02T18:15:54.436Z,53.70
2018-03-02T18:18:22.113Z,50.30
2018-03-02T18:20:49.701Z,53.83
2018-03-02T18:23:17.317Z,54.50
2018-03-02T18:25:45.676Z,55.58
2018-03-02T18:28:13.290Z,55.42
2018-03-02T18:30:40.882Z,52.05
2018-03-02T18:33:08.516Z,58.38
2018-03-02T18:35:36.064Z,62.38
2018-03-02T18:38:03.682Z,60.28
2018-03-02T18:40:31.299Z,58.67
2018-03-02T18:42:59.528Z,58.97
2018-03-02T18:45:27.852Z,62.47
2018-03-02T18:47:55.472Z,49.60
2018-03-02T18:50:23.061Z,56.95
2018-03-02T18:52:50.692Z,62.97
2018-03-02T18:55:18.283Z,57.67
2018-03-02T18:57:45.911Z,60.00
2018-03-02T19:00:13.504Z,65.83
2018-03-02T19:02:41.148Z,52.92
2018-03-02T19:05:08.747Z,55.75
2018-03-02T19:07:36.376Z,65.00
2018-03-02T19:10:04.365Z,54.95
2018-03-02T19:12:32.136Z,61.22
2018-03-02T19:14:59.763Z,60.45
2018-03-02T19:17:27.387Z,65.50
2018-03-02T19:19:55.001Z,60.47
2018-03-02T19:22:22.609Z,61.70
2018-03-02T19:24:50.238Z,54.33
2018-03-02T19:27:17.872Z,56.17
2018-03-02T19:29:45.462Z,60.05
2018-03-02T19:32:13.094Z,59.38
2018-03-02T19:34:40.707Z,59.15
2018-03-02T19:37:08.299Z,61.55
2018-03-02T19:39:36.325Z,63.35
2018-03-02T19:42:03.963Z,64.05
2018-03-02T19:44:31.868Z,66.30
2018-03-02T19:46:59.464Z,68.60
2018-03-02T19:49:27.166Z,64.37
2018-03-02T19:51:54.968Z,62.42
2018-03-02T19:54:22.641Z,67.82
2018-03-02T19:56:50.307Z,62.22
2018-03-02T19:59:17.926Z,68.65
2018-03-02T20:01:45.525Z,71.43
2018-03-02T20:04:13.136Z,72.18
2018-03-02T20:06:40.754Z,69.37
2018-03-02T20:09:08.374Z,64.05
2018-03-02T20:11:35.965Z,69.00
2018-03-02T20:14:03.608Z,70.50
2018-03-02T20:16:31.240Z,60.63
2018-03-02T20:19:00.892Z,62.62
2018-03-02T20:21:29.290Z,62.47
2018-03-02T20:23:56.977Z,65.95
2018-03-02T20:26:25.221Z,71.22
2018-03-02T20:28:54.094Z,61.05
2018-03-02T20:31:21.703Z,63.97
2018-03-02T20:33:49.365Z,65.75
2018-03-02T20:36:16.952Z,65.85
2018-03-02T20:38:44.633Z,65.05
2018-03-02T20:41:12.596Z,61.78
2018-03-02T20:43:40.291Z,65.60
2018-03-02T20:46:07.956Z,61.60
2018-03-02T20:48:36.111Z,64.62
2018-03-02T20:51:03.785Z,64.47
2018-03-02T20:53:31.665Z,65.60
2018-03-02T20:56:00.249Z,70.25
2018-03-02T20:58:27.973Z,60.92
2018-03-02T21:00:55.611Z,67.03
2018-03-02T21:03:23.568Z,73.15
2018-03-02T21:05:51.208Z,67.75
2018-03-02T21:08:18.806Z,73.87
2018-03-02T21:10:46.813Z,73.50
2018-03-02T21:13:15.449Z,66.78
2018-03-02T21:15:43.949Z,70.80
2018-03-02T21:18:12.065Z,65.20
2018-03-02T21:20:41.093Z,67.50
2018-03-02T21:23:09.182Z,69.12
2018-03-02T21:25:37.332Z,74.85
2018-03-02T21:28:05.259Z,66.87
2018-03-02T21:30:32.947Z,69.03
2018-03-02T21:33:00.547Z,67.90
2018-03-02T21:35:28.187Z,69.62
2018-03-02T21:37:56.392Z,76.00
2018-03-02T21:40:24.992Z,77.37
2018-03-02T21:42:52.642Z,69.43
2018-03-02T21:45:21.067Z,66.35
2018-03-02T21:47:48.865Z,67.28
2018-03-02T21:50:16.690Z,72.32
2018-03-02T21:52:44.276Z,71.47
2018-03-02T21:55:11.911Z,72.65
2018-03-02T21:57:39.608Z,71.27
2018-03-02T22:00:07.229Z,67.18
2018-03-02T22:02:34.840Z,70.95
2018-03-02T22:05:02.783Z,69.22
2018-03-02T22:07:30.400Z,75.10
2018-03-02T22:09:58.439Z,66.70
2018-03-02T22:12:26.035Z,69.62
2018-03-02T22:14:53.883Z,71.28
2018-03-02T22:17:21.564Z,135.10
2018-03-02T22:19:49.538Z,71.07
2018-03-02T22:22:17.395Z,75.62
2018-03-02T22:24:45.330Z,74.35
2018-03-02T22:27:13.056Z,70.47
2018-03-02T22:29:40.730Z,77.45
2018-03-02T22:32:10.348Z,74.07
2018-03-02T22:34:37.967Z,78.05
2018-03-02T22:37:05.586Z,79.62
2018-03-02T22:39:33.523Z,70.43
2018-03-02T22:42:01.286Z,62.92
2018-03-02T22:44:28.926Z,75.83
2018-03-02T22:46:56.563Z,71.25
2018-03-02T22:49:24.172Z,73.22
2018-03-02T22:51:51.816Z,65.47
2018-03-02T22:54:19.397Z,67.95
2018-03-02T22:56:47.014Z,70.03
2018-03-02T22:59:14.996Z,76.07
2018-03-02T23:01:42.611Z,76.03
2018-03-02T23:04:10.207Z,73.27
2018-03-02T23:06:37.822Z,74.80
2018-03-02T23:09:05.415Z,71.18
2018-03-02T23:11:33.071Z,70.50
2018-03-02T23:14:00.685Z,77.13
2018-03-02T23:16:28.312Z,75.57
2018-03-02T23:18:56.312Z,70.30
2018-03-02T23:21:23.903Z,77.43
2018-03-02T23:23:51.476Z,82.25
2018-03-02T23:26:19.075Z,75.65
2018-03-02T23:28:46.667Z,73.18
2018-03-02T23:31:14.241Z,78.35
2018-03-02T23:33:41.873Z,77.40
2018-03-02T23:36:09.483Z,73.68
2018-03-02T23:38:37.096Z,68.53
2018-03-02T23:41:04.740Z,60.10
2018-03-02T23:43:32.347Z,66.65
2018-03-02T23:45:59.990Z,78.03
2018-03-02T23:48:27.624Z,79.50
2018-03-02T23:50:55.209Z,83.40
2018-03-02T23:53:22.836Z,72.93
2018-03-02T23:55:50.464Z,74.75
2018-03-02T23:58:18.476Z,68.70
